Terminal Aerodrome Forecast
Issued by NWS

Home | Current Version | Previous Version | Text Only | Print | Product List | Glossary On
Versions: 1 2 3 4 5 6 7 8 9 10 11 12 13 14
000
FTUS45 KFGZ 222132 AAA
TAFPRC
TAF AMD
KPRC 222132Z 2222/2318 18015G25KT P6SM VCSH FEW035 BKN050 BKN090
      TEMPO 2222/2301 5SM -SHRA OVC035
     FM230300 21006KT P6SM BKN045 BKN090=

USA.gov is the U.S. government's official web portal to all federal, state and local government web resources and services.